Thursday, January 18, 2018, 11:01 PM EST
Back to Local

KPOU, Poughkeepsie Dutchess Cty

Location: Wappingers Falls, NY, United States Lat: 41.633
Local Time: 11:01 PM EST ( 4:01 GMT) Lon: -73.883
Time Zone: US/Eastern Elev: 167 ft

Show me the last for .
Show Coded

Time T Td Feel RH Dir Speed Gust Alt SLP Vis Weather Sky Remarks
2018-01-18 21:53 10 5 - 79 - Calm - 30.06 30.06 6 HZ CLR None
2018-01-18 20:53 11 7 - 83 - Calm - 30.04 30.04 7 CLR None
2018-01-18 19:53 13 9 - 83 - Calm - 30.02 30.02 8 CLR None
2018-01-18 18:53 15 10 - 79 - Calm - 30.00 30.00 10 CLR 6-hr Min Temp (7pm): 15.1°F
6-hr Max Temp (7pm): 26.1°F
2018-01-18 17:53 21 12 - 67 - Calm - 29.98 29.98 10 CLR None
2018-01-18 16:53 24 12 20 59 350° 3 - 29.96 29.96 10 CLR None
2018-01-18 15:53 25 12 18 57 310° 6 - 29.94 29.94 10 CLR None
2018-01-18 14:53 26 12 18 54 360° 7 - 29.94 29.93 10 CLR None
2018-01-18 13:53 26 10 21 50 350° 5 - 29.95 29.95 10 CLR None
2018-01-18 12:53 23 9 15 54 320° 7 - 29.97 29.97 10 CLR 6-hr Min Temp (1pm): -2.0°F
6-hr Max Temp (1pm): 24.1°F
2018-01-18 11:53 22 10 16 59 10° 5 - 30.02 30.02 10 CLR None
2018-01-18 10:53 20 12 15 70 20° 3 - 30.07 30.06 10 CLR None
2018-01-18 09:53 15 12 - 87 - Calm - 30.06 30.06 8 CLR None
2018-01-18 08:53 6 4 - 90 - Calm - 30.06 30.06 6 BR CLR None
2018-01-18 07:53 0 -4 - 82 - Calm - 30.08 30.08 7 CLR None
2018-01-18 06:53 1 -4 - 78 - Calm - 30.04 30.04 8 CLR 24-hr Precip Total (7am): 0.12"
6-hr Min Temp (7am): -0.0°F
6-hr Max Temp (7am): 8.1°F
2018-01-18 05:53 1 -3 - 82 - Calm - 30.05 30.05 8 CLR None
2018-01-18 04:53 1 -3 - 82 - Calm - 30.05 30.05 8 CLR None
2018-01-18 03:53 2 -3 - 79 - Calm - 30.09 30.09 8 CLR None
2018-01-18 02:53 3 -2 - 78 - Calm - 30.12 30.12 6 HZ CLR None
2018-01-18 01:53 3 1 - 91 - Calm - 30.13 30.13 5 BR CLR None
2018-01-18 00:53 7 3 - 83 - Calm - 30.13 30.13 6 BR CLR 6-hr Min Temp (1am): 3.9°F
6-hr Max Temp (1am): 25.0°F
2018-01-17 23:53 11 8 - 87 - Calm - 30.16 30.15 6 BR CLR 24-hr Min Temp (12am): 8.1°F
24-hr Max Temp (12am): 30.9°F

Support USWX by starting your Amazon purchase here.